Time;durP1;ratioP1;P1;durP2;ratioP2;P2;SDS_P1;SDS_P2;PMS_P1;PMS_P2;Temp;Humidity;BMP_temperature;BMP_pressure;BME280_temperature;BME280_humidity;BME280_pressure;Samples;Min_cycle;Max_cycle;Signal;HPM_P1;HPM_P2
2022/10/15 00:00:29;;;;;;;;;;;12.20;99.90;;;;;;6116655;23;19924;-65
2022/10/15 00:02:54;;;;;;;;;;;12.30;99.90;;;;;;6116258;23;19929;-63
2022/10/15 00:05:20;;;;;;;;;;;12.10;99.90;;;;;;6116829;23;19932;-62
2022/10/15 00:07:46;;;;;;;;;;;12.20;99.90;;;;;;6116078;23;20327;-62
2022/10/15 00:10:12;;;;;;;;;;;12.10;99.90;;;;;;6115940;23;19932;-62
2022/10/15 00:12:38;;;;;;;;;;;12.10;99.90;;;;;;6116707;23;19929;-62
2022/10/15 00:15:04;;;;;;;;;;;12.10;99.90;;;;;;6116880;23;19971;-62
2022/10/15 00:17:30;;;;;;;;;;;12.10;99.90;;;;;;6116340;23;20351;-62
2022/10/15 00:19:55;;;;;;;;;;;12.40;99.90;;;;;;6116507;23;19925;-62
2022/10/15 00:22:21;;;;;;;;;;;12.00;99.90;;;;;;6116778;23;19932;-62
2022/10/15 00:24:46;;;;;;;;;;;12.10;99.90;;;;;;6116577;23;19929;-62
2022/10/15 00:27:12;;;;;;;;;;;12.40;99.90;;;;;;6116038;23;19925;-67
2022/10/15 00:29:38;;;;;;;;;;;12.10;99.90;;;;;;6116683;23;19925;-65
2022/10/15 00:32:03;;;;;;;;;;;12.10;99.90;;;;;;6115656;23;19925;-68
2022/10/15 00:34:29;;;;;;;;;;;12.10;99.90;;;;;;6116719;23;19976;-64
2022/10/15 00:36:55;;;;;;;;;;;12.10;99.90;;;;;;6116871;23;19932;-67
2022/10/15 00:39:20;;;;;;;;;;;12.10;99.90;;;;;;6116380;23;19931;-65
2022/10/15 00:41:46;;;;;;;;;;;12.10;99.90;;;;;;6116629;23;20251;-67
2022/10/15 00:44:20;;;;;;;;;;;12.20;99.90;;;;;;6116886;23;19932;-66
2022/10/15 00:46:51;;;;;;;;;;;12.10;99.90;;;;;;6115309;23;19931;-64
2022/10/15 00:49:17;;;;;;;;;;;12.10;99.90;;;;;;6116448;23;20384;-63
2022/10/15 00:51:46;;;;;;;;;;;12.10;99.90;;;;;;6116233;23;20416;-68
2022/10/15 00:54:12;;;;;;;;;;;12.10;99.90;;;;;;6116613;23;19932;-69
2022/10/15 00:56:38;;;;;;;;;;;12.10;99.90;;;;;;6116241;23;19925;-62
2022/10/15 00:59:04;;;;;;;;;;;12.10;99.90;;;;;;6116273;23;20255;-62
2022/10/15 01:01:30;;;;;;;;;;;12.20;99.90;;;;;;6116243;23;19925;-62
2022/10/15 01:03:56;;;;;;;;;;;12.10;99.90;;;;;;6116585;23;20355;-62
2022/10/15 01:06:22;;;;;;;;;;;12.10;99.90;;;;;;6116144;23;20391;-62
2022/10/15 01:08:48;;;;;;;;;;;12.10;99.90;;;;;;6115670;23;20386;-62
2022/10/15 01:11:13;;;;;;;;;;;12.10;99.90;;;;;;6116692;23;19925;-62
2022/10/15 01:13:42;;;;;;;;;;;12.10;99.90;;;;;;6116137;23;20000;-62
2022/10/15 01:16:42;;;;;;;;;;;12.10;99.90;;;;;;6116465;23;19933;-62
2022/10/15 01:19:37;;;;;;;;;;;12.10;99.90;;;;;;6146550;23;20310;-62
2022/10/15 01:22:10;;;;;;;;;;;12.10;99.90;;;;;;6087656;23;19925;-62
2022/10/15 01:24:43;;;;;;;;;;;12.10;99.90;;;;;;6116049;23;19931;-62
2022/10/15 01:27:15;;;;;;;;;;;12.10;99.90;;;;;;6115755;23;20478;-62
2022/10/15 01:29:56;;;;;;;;;;;12.30;99.90;;;;;;6115635;23;19925;-62
2022/10/15 01:32:24;;;;;;;;;;;12.10;99.90;;;;;;6115712;23;19925;-62
2022/10/15 01:34:58;;;;;;;;;;;12.10;99.90;;;;;;6115311;23;19929;-62
2022/10/15 01:37:24;;;;;;;;;;;12.10;99.90;;;;;;6116540;23;19929;-62
2022/10/15 01:39:53;;;;;;;;;;;12.40;99.90;;;;;;6116590;23;20411;-63
2022/10/15 01:42:33;;;;;;;;;;;12.10;99.90;;;;;;6116043;23;19925;-63
2022/10/15 01:45:02;;;;;;;;;;;12.10;99.90;;;;;;6115782;23;19960;-62
2022/10/15 01:47:31;;;;;;;;;;;12.10;99.90;;;;;;6116476;23;19929;-62
2022/10/15 01:49:59;;;;;;;;;;;12.10;99.90;;;;;;6116491;23;20598;-62
2022/10/15 01:52:26;;;;;;;;;;;12.10;99.90;;;;;;6115857;23;20241;-62
2022/10/15 01:54:52;;;;;;;;;;;12.10;99.90;;;;;;6115867;23;19971;-62
2022/10/15 01:57:19;;;;;;;;;;;12.10;99.90;;;;;;6115678;23;19936;-62
2022/10/15 01:59:44;;;;;;;;;;;12.10;99.90;;;;;;6115631;23;20383;-62
2022/10/15 02:02:10;;;;;;;;;;;12.10;99.90;;;;;;6115838;23;19925;-62
2022/10/15 02:04:36;;;;;;;;;;;12.10;99.90;;;;;;6116047;23;19979;-62
2022/10/15 02:07:04;;;;;;;;;;;12.70;99.90;;;;;;6116095;23;19929;-62
2022/10/15 02:09:36;;;;;;;;;;;12.10;99.90;;;;;;6115788;23;19929;-62
2022/10/15 02:12:04;;;;;;;;;;;12.10;99.90;;;;;;6116005;23;19931;-62
2022/10/15 02:14:35;;;;;;;;;;;12.00;99.90;;;;;;6115894;23;19971;-62
2022/10/15 02:17:07;;;;;;;;;;;12.10;99.90;;;;;;6116252;23;19956;-62
2022/10/15 02:19:40;;;;;;;;;;;12.00;99.90;;;;;;6115477;23;20004;-62
2022/10/15 02:22:17;;;;;;;;;;;12.00;99.90;;;;;;6116079;23;19925;-62
2022/10/15 02:25:03;;;;;;;;;;;12.10;99.90;;;;;;6114881;23;19940;-62
2022/10/15 02:27:30;;;;;;;;;;;12.00;99.90;;;;;;6115588;23;19950;-62
2022/10/15 02:29:56;;;;;;;;;;;12.00;99.90;;;;;;6113189;23;19929;-62
2022/10/15 02:32:23;;;;;;;;;;;12.10;99.90;;;;;;6114833;23;20042;-62
2022/10/15 02:34:50;;;;;;;;;;;12.00;99.90;;;;;;6115002;23;19925;-62
2022/10/15 02:37:19;;;;;;;;;;;12.30;99.90;;;;;;6115365;23;19932;-62
2022/10/15 02:39:44;;;;;;;;;;;12.00;99.90;;;;;;6115039;23;19957;-62
2022/10/15 02:42:10;;;;;;;;;;;12.00;99.90;;;;;;6115427;23;19971;-62
2022/10/15 02:44:36;;;;;;;;;;;12.20;99.90;;;;;;6114858;23;19925;-62
2022/10/15 02:47:02;;;;;;;;;;;12.00;99.90;;;;;;6115223;23;19961;-66
2022/10/15 02:49:27;;;;;;;;;;;12.00;99.90;;;;;;6114635;23;19929;-64
2022/10/15 02:51:53;;;;;;;;;;;12.40;99.90;;;;;;6113471;23;19931;-64
2022/10/15 02:54:18;;;;;;;;;;;12.10;99.90;;;;;;6114014;23;19929;-64
2022/10/15 02:56:44;;;;;;;;;;;12.00;99.90;;;;;;6114454;23;19956;-68
2022/10/15 02:59:09;;;;;;;;;;;12.00;99.90;;;;;;6114637;23;20268;-64
2022/10/15 03:01:35;;;;;;;;;;;12.00;99.90;;;;;;6114847;23;20012;-68
2022/10/15 03:04:01;;;;;;;;;;;12.00;99.90;;;;;;6114738;23;20035;-63
2022/10/15 03:06:26;;;;;;;;;;;12.00;99.90;;;;;;6115180;23;19925;-67
2022/10/15 03:08:52;;;;;;;;;;;12.00;99.90;;;;;;6114132;23;20389;-66
2022/10/15 03:11:17;;;;;;;;;;;12.00;99.90;;;;;;6116686;23;20191;-65
2022/10/15 03:13:43;;;;;;;;;;;12.20;99.90;;;;;;6115875;23;19960;-69
2022/10/15 03:16:09;;;;;;;;;;;12.30;99.90;;;;;;6116529;23;19932;-68
2022/10/15 03:18:35;;;;;;;;;;;12.00;99.90;;;;;;6116190;23;19925;-67
2022/10/15 03:21:01;;;;;;;;;;;12.20;99.90;;;;;;6115795;23;20003;-65
2022/10/15 03:23:27;;;;;;;;;;;12.00;99.90;;;;;;6116334;23;19925;-68
2022/10/15 03:25:53;;;;;;;;;;;11.90;99.90;;;;;;6116440;23;20014;-64
2022/10/15 03:28:19;;;;;;;;;;;11.90;99.90;;;;;;6115646;23;20689;-62
2022/10/15 03:30:45;;;;;;;;;;;12.00;99.90;;;;;;6116427;23;19925;-62
2022/10/15 03:33:10;;;;;;;;;;;12.00;99.90;;;;;;6115913;23;20011;-61
2022/10/15 03:35:36;;;;;;;;;;;11.90;99.90;;;;;;6116513;23;20419;-61
2022/10/15 03:38:02;;;;;;;;;;;11.90;99.90;;;;;;6116358;23;19925;-62
2022/10/15 03:40:27;;;;;;;;;;;12.30;99.90;;;;;;6116374;23;19964;-62
2022/10/15 03:42:55;;;;;;;;;;;11.90;99.90;;;;;;6115600;23;20500;-62
2022/10/15 03:45:21;;;;;;;;;;;11.90;99.90;;;;;;6114585;23;20382;-62
2022/10/15 03:47:46;;;;;;;;;;;11.90;99.90;;;;;;6116721;23;19925;-62
2022/10/15 03:50:12;;;;;;;;;;;11.90;99.90;;;;;;6115770;23;19925;-62
2022/10/15 03:52:38;;;;;;;;;;;11.90;99.90;;;;;;6114057;23;20421;-62
2022/10/15 03:55:04;;;;;;;;;;;11.90;99.90;;;;;;6116424;23;20269;-62
2022/10/15 03:57:29;;;;;;;;;;;11.90;99.90;;;;;;6115056;23;19924;-62
2022/10/15 03:59:55;;;;;;;;;;;11.90;99.90;;;;;;6116188;23;19971;-62
2022/10/15 04:02:20;;;;;;;;;;;11.90;99.90;;;;;;6115844;23;19925;-62
2022/10/15 04:04:46;;;;;;;;;;;11.90;99.90;;;;;;6115404;23;19932;-68
2022/10/15 04:07:11;;;;;;;;;;;11.90;99.90;;;;;;6116601;23;20144;-63
2022/10/15 04:09:37;;;;;;;;;;;11.90;99.90;;;;;;6115717;23;19929;-62
2022/10/15 04:12:03;;;;;;;;;;;12.30;99.90;;;;;;6116077;23;19925;-65
2022/10/15 04:14:28;;;;;;;;;;;11.90;99.90;;;;;;6114528;23;19924;-66
2022/10/15 04:16:54;;;;;;;;;;;11.90;99.90;;;;;;6115978;23;19931;-68
2022/10/15 04:19:20;;;;;;;;;;;11.90;99.90;;;;;;6115472;23;19925;-64
2022/10/15 04:21:45;;;;;;;;;;;11.90;99.90;;;;;;6115892;23;19932;-63
2022/10/15 04:24:11;;;;;;;;;;;11.90;99.90;;;;;;6115678;23;20007;-68
2022/10/15 04:26:36;;;;;;;;;;;11.90;99.90;;;;;;6116413;23;20000;-67
2022/10/15 04:29:02;;;;;;;;;;;11.80;99.90;;;;;;6115949;23;20375;-63
2022/10/15 04:31:27;;;;;;;;;;;11.90;99.90;;;;;;6116101;23;20348;-68
2022/10/15 04:33:53;;;;;;;;;;;11.90;99.90;;;;;;6116426;23;19924;-64
2022/10/15 04:36:18;;;;;;;;;;;12.30;99.90;;;;;;6116543;23;19925;-64
2022/10/15 04:38:44;;;;;;;;;;;11.90;99.90;;;;;;6116473;23;19924;-68
2022/10/15 04:41:10;;;;;;;;;;;11.90;99.90;;;;;;6116519;23;19925;-69
2022/10/15 04:43:36;;;;;;;;;;;11.90;99.90;;;;;;6116306;23;19925;-65
2022/10/15 04:46:03;;;;;;;;;;;11.80;99.90;;;;;;6114712;23;19932;-66
2022/10/15 04:48:29;;;;;;;;;;;11.90;99.90;;;;;;6116463;23;19925;-66
2022/10/15 04:50:55;;;;;;;;;;;11.80;99.90;;;;;;6116119;23;19931;-63
2022/10/15 04:53:21;;;;;;;;;;;11.90;99.90;;;;;;6116771;23;19991;-63
2022/10/15 04:55:46;;;;;;;;;;;11.80;99.90;;;;;;6116444;23;19956;-62
2022/10/15 04:58:12;;;;;;;;;;;11.80;99.90;;;;;;6116051;23;20378;-62
2022/10/15 05:00:37;;;;;;;;;;;11.80;99.90;;;;;;6116917;23;20009;-62
2022/10/15 05:03:06;;;;;;;;;;;11.80;99.90;;;;;;6116017;23;20004;-63
2022/10/15 05:05:32;;;;;;;;;;;11.80;99.90;;;;;;6116323;23;20000;-62
2022/10/15 05:08:01;;;;;;;;;;;11.80;99.90;;;;;;6116529;23;19968;-62
2022/10/15 05:10:27;;;;;;;;;;;11.70;99.90;;;;;;6116439;23;20237;-62
2022/10/15 05:12:53;;;;;;;;;;;11.70;99.90;;;;;;6116281;23;20332;-62
2022/10/15 05:15:18;;;;;;;;;;;11.80;99.90;;;;;;6116327;23;19925;-62
2022/10/15 05:17:44;;;;;;;;;;;11.80;99.90;;;;;;6115303;23;20351;-62
2022/10/15 05:20:09;;;;;;;;;;;11.80;99.90;;;;;;6115770;23;19979;-62
2022/10/15 05:22:35;;;;;;;;;;;11.70;99.90;;;;;;6116044;23;19971;-62
2022/10/15 05:25:00;;;;;;;;;;;11.80;99.90;;;;;;6115936;23;20369;-62
2022/10/15 05:27:26;;;;;;;;;;;11.70;99.90;;;;;;6116780;23;19929;-62
2022/10/15 05:29:51;;;;;;;;;;;11.80;99.90;;;;;;6115949;23;20332;-62
2022/10/15 05:32:17;;;;;;;;;;;11.80;99.90;;;;;;6113855;23;19929;-62
2022/10/15 05:34:42;;;;;;;;;;;11.70;99.90;;;;;;6116331;23;20401;-62
2022/10/15 05:37:08;;;;;;;;;;;11.70;99.90;;;;;;6115938;23;20591;-62
2022/10/15 05:39:33;;;;;;;;;;;11.70;99.90;;;;;;6115578;23;20336;-62
2022/10/15 05:41:59;;;;;;;;;;;11.70;99.90;;;;;;6116451;23;19925;-65
2022/10/15 05:44:24;;;;;;;;;;;11.80;99.90;;;;;;6115853;23;19978;-64
2022/10/15 05:46:50;;;;;;;;;;;11.70;99.90;;;;;;6113836;23;19925;-63
2022/10/15 05:49:15;;;;;;;;;;;11.70;99.90;;;;;;6116206;23;19929;-65
2022/10/15 05:51:41;;;;;;;;;;;11.70;99.90;;;;;;6115557;23;19951;-63
2022/10/15 05:54:06;;;;;;;;;;;11.70;99.90;;;;;;6116019;23;20352;-66
2022/10/15 05:56:32;;;;;;;;;;;11.70;99.90;;;;;;6115258;23;19999;-63
2022/10/15 05:58:57;;;;;;;;;;;11.60;99.90;;;;;;6115543;23;19932;-63
2022/10/15 06:01:23;;;;;;;;;;;11.60;99.90;;;;;;6115887;23;19924;-64
2022/10/15 06:03:48;;;;;;;;;;;11.70;99.90;;;;;;6114665;23;19948;-65
2022/10/15 06:06:15;;;;;;;;;;;11.80;99.90;;;;;;6116172;23;19931;-64
2022/10/15 06:08:41;;;;;;;;;;;11.70;99.90;;;;;;6113691;23;19925;-65
2022/10/15 06:11:07;;;;;;;;;;;11.70;99.90;;;;;;6112206;23;20089;-65
2022/10/15 06:13:33;;;;;;;;;;;11.70;99.90;;;;;;6113375;23;20310;-67
2022/10/15 06:15:58;;;;;;;;;;;11.70;99.90;;;;;;6112298;23;19921;-63
2022/10/15 06:18:24;;;;;;;;;;;11.70;99.90;;;;;;6115141;23;19976;-64
2022/10/15 06:20:51;;;;;;;;;;;11.70;99.90;;;;;;6113811;23;19925;-64
2022/10/15 06:23:17;;;;;;;;;;;12.10;99.90;;;;;;6114795;23;20020;-64
2022/10/15 06:25:42;;;;;;;;;;;11.70;99.90;;;;;;6114385;23;20371;-67
2022/10/15 06:28:08;;;;;;;;;;;11.60;99.90;;;;;;6114414;23;20355;-67
2022/10/15 06:30:34;;;;;;;;;;;11.70;99.90;;;;;;6113656;23;20301;-65
2022/10/15 06:32:59;;;;;;;;;;;11.70;99.90;;;;;;6114693;23;19925;-65
2022/10/15 06:35:25;;;;;;;;;;;11.70;99.90;;;;;;6114584;23;20349;-66
2022/10/15 06:37:52;;;;;;;;;;;11.70;99.90;;;;;;6113995;23;20383;-64
2022/10/15 06:40:17;;;;;;;;;;;11.70;99.90;;;;;;6113473;23;20378;-67
2022/10/15 06:42:43;;;;;;;;;;;11.70;99.90;;;;;;6114173;23;19925;-65
2022/10/15 06:45:11;;;;;;;;;;;11.70;99.90;;;;;;6113750;23;20466;-63
2022/10/15 06:47:39;;;;;;;;;;;11.70;99.90;;;;;;6114051;23;20217;-62
2022/10/15 06:50:05;;;;;;;;;;;11.70;99.90;;;;;;6113486;23;19925;-62
2022/10/15 06:52:30;;;;;;;;;;;11.70;99.90;;;;;;6115315;23;19925;-63
2022/10/15 06:54:56;;;;;;;;;;;11.80;99.90;;;;;;6114701;23;20062;-63
2022/10/15 06:57:24;;;;;;;;;;;11.80;99.90;;;;;;6113526;23;19925;-63
2022/10/15 06:59:49;;;;;;;;;;;11.90;99.90;;;;;;6114742;23;19924;-66
2022/10/15 07:02:16;;;;;;;;;;;11.90;99.90;;;;;;6115572;23;20350;-64
2022/10/15 07:04:42;;;;;;;;;;;11.80;99.90;;;;;;6114748;23;20367;-63
2022/10/15 07:07:08;;;;;;;;;;;11.90;99.90;;;;;;6113982;23;19929;-64
2022/10/15 07:09:34;;;;;;;;;;;11.90;99.90;;;;;;6115295;23;20401;-63
2022/10/15 07:11:59;;;;;;;;;;;12.00;99.90;;;;;;6115673;23;20263;-62
2022/10/15 07:14:25;;;;;;;;;;;12.00;99.90;;;;;;6116044;23;19925;-63
2022/10/15 07:16:51;;;;;;;;;;;12.00;99.90;;;;;;6115823;23;19924;-62
2022/10/15 07:19:16;;;;;;;;;;;12.10;99.90;;;;;;6115040;23;19932;-63
2022/10/15 07:21:42;;;;;;;;;;;12.10;99.90;;;;;;6114315;23;19925;-63
2022/10/15 07:24:07;;;;;;;;;;;12.20;99.90;;;;;;6112633;23;20268;-64
2022/10/15 07:26:33;;;;;;;;;;;12.20;99.90;;;;;;6115147;23;19964;-64
2022/10/15 07:29:02;;;;;;;;;;;12.30;99.90;;;;;;6115855;23;19925;-64
2022/10/15 07:31:27;;;;;;;;;;;12.30;99.90;;;;;;6115918;23;20303;-63
2022/10/15 07:33:53;;;;;;;;;;;12.40;99.90;;;;;;6114774;23;19929;-66
2022/10/15 07:36:19;;;;;;;;;;;12.40;99.90;;;;;;6114328;23;19925;-63
2022/10/15 07:38:45;;;;;;;;;;;12.50;99.90;;;;;;6114364;23;20316;-63
2022/10/15 07:41:10;;;;;;;;;;;12.50;99.90;;;;;;6114961;23;20332;-63
2022/10/15 07:43:36;;;;;;;;;;;12.70;99.90;;;;;;6110393;23;20011;-67
2022/10/15 07:46:02;;;;;;;;;;;12.70;99.90;;;;;;6114683;23;20079;-66
2022/10/15 07:48:28;;;;;;;;;;;12.80;99.90;;;;;;6114541;23;19936;-62
2022/10/15 07:50:57;;;;;;;;;;;12.80;99.90;;;;;;6114543;23;19931;-63
2022/10/15 07:53:23;;;;;;;;;;;13.00;99.90;;;;;;6115334;23;20001;-62
2022/10/15 07:55:48;;;;;;;;;;;13.00;99.90;;;;;;6113352;23;20171;-63
2022/10/15 07:58:14;;;;;;;;;;;13.00;99.90;;;;;;6114711;23;19929;-63
2022/10/15 08:00:40;;;;;;;;;;;13.00;99.90;;;;;;6114574;23;19929;-62
2022/10/15 08:03:05;;;;;;;;;;;13.00;99.90;;;;;;6114537;23;19925;-62
2022/10/15 08:05:31;;;;;;;;;;;13.00;99.90;;;;;;6114128;23;19995;-62
2022/10/15 08:07:57;;;;;;;;;;;13.10;99.90;;;;;;6115299;23;19957;-63
2022/10/15 08:10:22;;;;;;;;;;;13.10;99.90;;;;;;6114176;23;19925;-63
2022/10/15 08:12:48;;;;;;;;;;;13.30;99.90;;;;;;6114750;23;19935;-63
2022/10/15 08:15:13;;;;;;;;;;;13.50;99.90;;;;;;6115037;23;19931;-62
2022/10/15 08:17:39;;;;;;;;;;;13.60;99.90;;;;;;6113836;23;19924;-63
2022/10/15 08:20:05;;;;;;;;;;;13.60;99.90;;;;;;6113350;23;20350;-63
2022/10/15 08:22:31;;;;;;;;;;;13.80;99.90;;;;;;6111787;23;20354;-63
2022/10/15 08:24:57;;;;;;;;;;;13.90;99.90;;;;;;6114199;23;19934;-62
2022/10/15 08:27:23;;;;;;;;;;;14.00;99.90;;;;;;6113915;23;19929;-63
2022/10/15 08:29:48;;;;;;;;;;;14.10;99.90;;;;;;6112314;23;20466;-64
2022/10/15 08:32:14;;;;;;;;;;;14.20;99.90;;;;;;6113005;23;19925;-62
2022/10/15 08:34:39;;;;;;;;;;;14.10;99.90;;;;;;6111079;23;19960;-63
2022/10/15 08:37:05;;;;;;;;;;;14.30;99.90;;;;;;6114631;23;19925;-62
2022/10/15 08:39:30;;;;;;;;;;;14.40;99.90;;;;;;6114664;23;20340;-63
2022/10/15 08:41:58;;;;;;;;;;;14.50;99.90;;;;;;6112917;23;19947;-63
2022/10/15 08:44:25;;;;;;;;;;;14.70;99.90;;;;;;6114887;23;19932;-63
2022/10/15 08:47:10;;;;;;;;;;;14.80;99.90;;;;;;6114873;23;19925;-62
2022/10/15 08:49:49;;;;;;;;;;;14.70;99.90;;;;;;6111082;23;19953;-64
2022/10/15 08:52:33;;;;;;;;;;;14.70;99.90;;;;;;6114698;23;20012;-65
2022/10/15 08:55:00;;;;;;;;;;;15.10;99.90;;;;;;6112834;23;19925;-65
2022/10/15 08:57:31;;;;;;;;;;;15.00;99.90;;;;;;6114278;23;20344;-66
2022/10/15 09:00:16;;;;;;;;;;;15.10;99.90;;;;;;6115042;23;20255;-65
2022/10/15 09:03:02;;;;;;;;;;;15.30;99.90;;;;;;6113987;23;19925;-65
2022/10/15 09:05:46;;;;;;;;;;;15.10;99.90;;;;;;6115202;23;19928;-65
2022/10/15 09:08:30;;;;;;;;;;;15.10;99.90;;;;;;6112699;23;19925;-64
2022/10/15 09:11:05;;;;;;;;;;;15.20;99.90;;;;;;6115452;23;19925;-63
2022/10/15 09:13:33;;;;;;;;;;;15.20;99.90;;;;;;6115647;23;19925;-62
2022/10/15 09:16:11;;;;;;;;;;;15.40;99.90;;;;;;6114008;23;20666;-65
2022/10/15 09:18:38;;;;;;;;;;;15.50;99.90;;;;;;6112808;23;19947;-63
2022/10/15 09:21:04;;;;;;;;;;;15.50;99.90;;;;;;6112902;23;19925;-63
2022/10/15 09:23:33;;;;;;;;;;;15.70;99.90;;;;;;6113896;23;19925;-63
2022/10/15 09:26:25;;;;;;;;;;;15.90;99.90;;;;;;6115276;23;19925;-63
2022/10/15 09:28:53;;;;;;;;;;;15.90;99.90;;;;;;6114269;23;19924;-63
2022/10/15 09:31:22;;;;;;;;;;;16.00;99.90;;;;;;6114116;23;19929;-62
2022/10/15 09:33:51;;;;;;;;;;;16.10;99.90;;;;;;6114513;23;20272;-64
2022/10/15 09:36:26;;;;;;;;;;;16.30;99.90;;;;;;6115188;23;19925;-63
2022/10/15 09:39:00;;;;;;;;;;;16.30;99.90;;;;;;6115205;23;20240;-64
2022/10/15 09:41:35;;;;;;;;;;;16.30;99.90;;;;;;6115954;23;20260;-63
2022/10/15 09:44:01;;;;;;;;;;;16.40;99.90;;;;;;6114922;23;19932;-64
2022/10/15 09:46:27;;;;;;;;;;;16.20;99.90;;;;;;6115565;23;20051;-64
2022/10/15 09:48:58;;;;;;;;;;;15.90;99.90;;;;;;6115137;23;19964;-62
2022/10/15 09:51:34;;;;;;;;;;;16.00;99.90;;;;;;6114886;23;19925;-63
2022/10/15 09:54:06;;;;;;;;;;;15.80;99.90;;;;;;6114680;23;20324;-64
2022/10/15 09:56:35;;;;;;;;;;;15.60;99.90;;;;;;6113121;23;19925;-64
2022/10/15 09:59:00;;;;;;;;;;;15.40;99.90;;;;;;6111795;23;19925;-64
2022/10/15 10:01:30;;;;;;;;;;;15.20;99.90;;;;;;6114768;23;19931;-63
2022/10/15 10:04:14;;;;;;;;;;;15.00;99.90;;;;;;6114529;23;19925;-62
2022/10/15 10:06:48;;;;;;;;;;;15.00;99.90;;;;;;6113432;23;19925;-65
2022/10/15 10:09:22;;;;;;;;;;;15.00;99.90;;;;;;6114344;23;20442;-63
2022/10/15 10:11:50;;;;;;;;;;;14.80;99.90;;;;;;6112448;23;19933;-64
2022/10/15 10:14:21;;;;;;;;;;;14.80;99.90;;;;;;6113563;23;19925;-63
2022/10/15 10:17:02;;;;;;;;;;;14.70;99.90;;;;;;6113576;23;19931;-65
2022/10/15 10:19:28;;;;;;;;;;;14.60;99.90;;;;;;6115570;23;19929;-69
2022/10/15 10:22:04;;;;;;;;;;;13.30;99.90;;;;;;6089683;23;20327;-65
2022/10/15 10:24:33;;;;;;;;;;;14.40;99.90;;;;;;6115243;23;20412;-65
2022/10/15 10:26:59;;;;;;;;;;;14.30;99.90;;;;;;6114755;23;19996;-63
2022/10/15 10:29:26;;;;;;;;;;;14.50;99.90;;;;;;6114068;23;19929;-66
2022/10/15 10:31:52;;;;;;;;;;;14.20;99.90;;;;;;6115896;23;19956;-64
2022/10/15 10:34:24;;;;;;;;;;;14.30;99.90;;;;;;6116243;23;19932;-65
2022/10/15 10:36:50;;;;;;;;;;;14.20;99.90;;;;;;6115357;23;19925;-68
2022/10/15 10:39:24;;;;;;;;;;;14.20;99.90;;;;;;6117264;23;19925;-64
2022/10/15 10:41:52;;;;;;;;;;;14.10;99.90;;;;;;6116102;23;19925;-67
2022/10/15 10:44:31;;;;;;;;;;;14.10;99.90;;;;;;6116609;23;19947;-66
2022/10/15 10:47:02;;;;;;;;;;;14.20;99.90;;;;;;6116916;23;19925;-65
2022/10/15 10:49:31;;;;;;;;;;;14.20;99.90;;;;;;6117097;23;19929;-69
2022/10/15 10:51:57;;;;;;;;;;;14.20;99.90;;;;;;6117047;23;20004;-65
2022/10/15 10:54:23;;;;;;;;;;;14.20;99.90;;;;;;6116429;23;19952;-68
2022/10/15 10:56:49;;;;;;;;;;;14.30;99.90;;;;;;6116856;23;19925;-69
2022/10/15 10:59:18;;;;;;;;;;;14.50;99.90;;;;;;6116432;23;20268;-67
2022/10/15 11:01:44;;;;;;;;;;;14.60;99.90;;;;;;6116865;23;19965;-66
2022/10/15 11:04:13;;;;;;;;;;;14.80;99.90;;;;;;6116236;23;19925;-68
2022/10/15 11:06:54;;;;;;;;;;;14.90;99.90;;;;;;6116773;23;20263;-64
2022/10/15 11:09:20;;;;;;;;;;;14.90;99.90;;;;;;6115726;23;19925;-66
2022/10/15 11:12:00;;;;;;;;;;;14.70;99.90;;;;;;6115517;23;19925;-67
2022/10/15 11:14:41;;;;;;;;;;;14.70;99.90;;;;;;6116734;23;19982;-66
2022/10/15 11:17:07;;;;;;;;;;;14.70;99.90;;;;;;6117287;23;19956;-68
2022/10/15 11:19:54;;;;;;;;;;;14.80;99.90;;;;;;6116798;23;19947;-69
2022/10/15 11:22:20;;;;;;;;;;;14.90;99.90;;;;;;6116231;23;19932;-70
2022/10/15 11:24:45;;;;;;;;;;;15.10;99.90;;;;;;6116354;23;20244;-65
2022/10/15 11:27:26;;;;;;;;;;;15.20;99.90;;;;;;6113754;23;20359;-65
2022/10/15 11:30:02;;;;;;;;;;;15.20;99.90;;;;;;6115323;23;19924;-64
2022/10/15 11:32:30;;;;;;;;;;;15.40;99.90;;;;;;6116828;23;19925;-64
2022/10/15 11:35:15;;;;;;;;;;;15.50;99.90;;;;;;6116240;23;20007;-64
2022/10/15 11:37:50;;;;;;;;;;;15.70;99.90;;;;;;6116245;23;19932;-69
2022/10/15 11:40:20;;;;;;;;;;;15.80;99.90;;;;;;6116524;23;19925;-66
2022/10/15 11:42:48;;;;;;;;;;;15.60;99.90;;;;;;6116204;23;19925;-64
2022/10/15 11:45:14;;;;;;;;;;;15.50;99.90;;;;;;6117086;23;20028;-63
2022/10/15 11:47:58;;;;;;;;;;;15.60;99.90;;;;;;6116537;23;19965;-63
2022/10/15 11:50:38;;;;;;;;;;;15.60;99.90;;;;;;6116225;23;20399;-63
2022/10/15 11:53:22;;;;;;;;;;;15.50;99.90;;;;;;6116495;23;19925;-64
2022/10/15 11:55:53;;;;;;;;;;;15.70;99.90;;;;;;6115207;23;20262;-64
2022/10/15 11:58:30;;;;;;;;;;;15.70;99.90;;;;;;6116640;23;19924;-63
2022/10/15 12:00:59;;;;;;;;;;;15.70;99.90;;;;;;6115300;23;20106;-64
2022/10/15 12:03:26;;;;;;;;;;;15.70;99.90;;;;;;6115592;23;19932;-65
2022/10/15 12:05:53;;;;;;;;;;;15.80;99.90;;;;;;6114770;23;19931;-64
2022/10/15 12:08:20;;;;;;;;;;;15.80;99.90;;;;;;6116443;23;19994;-65
2022/10/15 12:10:51;;;;;;;;;;;15.80;99.90;;;;;;6116442;23;19925;-64
2022/10/15 12:13:35;;;;;;;;;;;15.70;99.90;;;;;;6116314;23;19978;-64
2022/10/15 12:16:00;;;;;;;;;;;15.70;99.90;;;;;;6115835;23;19932;-63
2022/10/15 12:18:39;;;;;;;;;;;15.70;99.90;;;;;;6110562;23;19925;-64
2022/10/15 12:21:37;;;;;;;;;;;15.70;99.90;;;;;;6114279;23;19925;-65
2022/10/15 12:24:05;;;;;;;;;;;15.90;99.90;;;;;;6130804;23;19925;-64
2022/10/15 12:26:32;;;;;;;;;;;16.00;99.90;;;;;;6114735;23;20340;-65
2022/10/15 12:28:59;;;;;;;;;;;16.10;99.90;;;;;;6115943;23;19929;-64
2022/10/15 12:31:24;;;;;;;;;;;16.00;99.90;;;;;;6115036;23;20414;-66
2022/10/15 12:33:52;;;;;;;;;;;16.20;99.90;;;;;;6115508;23;19925;-64
2022/10/15 12:36:17;;;;;;;;;;;16.20;99.90;;;;;;6113944;23;20259;-64
2022/10/15 12:38:54;;;;;;;;;;;16.30;99.90;;;;;;6115340;23;19929;-64
2022/10/15 12:41:19;;;;;;;;;;;16.30;99.90;;;;;;6114495;23;20008;-64
2022/10/15 12:44:02;;;;;;;;;;;16.10;99.90;;;;;;6116070;23;19968;-64
2022/10/15 12:46:35;;;;;;;;;;;16.10;99.90;;;;;;6115608;23;19929;-65
2022/10/15 12:49:02;;;;;;;;;;;16.10;99.90;;;;;;6116122;23;19978;-64
2022/10/15 12:51:28;;;;;;;;;;;16.00;99.90;;;;;;6115510;23;20353;-64
2022/10/15 12:53:59;;;;;;;;;;;16.00;99.90;;;;;;6116186;23;19953;-65
2022/10/15 12:56:34;;;;;;;;;;;15.90;99.90;;;;;;6115303;23;20006;-64
2022/10/15 12:59:00;;;;;;;;;;;16.00;99.90;;;;;;6115155;23;19932;-65
2022/10/15 13:01:48;;;;;;;;;;;16.00;99.90;;;;;;6114611;23;19925;-65
2022/10/15 13:04:14;;;;;;;;;;;16.20;99.90;;;;;;6113114;23;19932;-64
2022/10/15 13:06:39;;;;;;;;;;;16.20;99.90;;;;;;6114477;23;19929;-65
2022/10/15 13:09:17;;;;;;;;;;;16.00;99.90;;;;;;6114409;23;19925;-65
2022/10/15 13:11:47;;;;;;;;;;;16.10;99.90;;;;;;6115865;23;19925;-63
2022/10/15 13:14:31;;;;;;;;;;;16.10;99.90;;;;;;6114843;23;19925;-64
2022/10/15 13:16:58;;;;;;;;;;;16.00;99.90;;;;;;6115224;23;19925;-65
2022/10/15 13:19:38;;;;;;;;;;;16.00;99.90;;;;;;6114918;23;19925;-66
2022/10/15 13:22:05;;;;;;;;;;;15.90;99.90;;;;;;6113209;23;20429;-64
2022/10/15 13:24:42;;;;;;;;;;;15.80;99.90;;;;;;6113314;23;19925;-65
2022/10/15 13:27:13;;;;;;;;;;;15.70;99.90;;;;;;6113546;23;19929;-67
2022/10/15 13:29:39;;;;;;;;;;;15.70;99.90;;;;;;6114640;23;20247;-63
2022/10/15 13:32:12;;;;;;;;;;;15.70;99.90;;;;;;6115366;23;19925;-64
2022/10/15 13:34:37;;;;;;;;;;;15.60;99.90;;;;;;6114447;23;20004;-65
2022/10/15 13:37:03;;;;;;;;;;;15.50;99.90;;;;;;6115162;23;19967;-65
2022/10/15 13:39:31;;;;;;;;;;;15.50;99.90;;;;;;6115021;23;19925;-64
2022/10/15 13:42:05;;;;;;;;;;;15.50;99.90;;;;;;6115279;23;19924;-65
2022/10/15 13:44:31;;;;;;;;;;;15.40;99.90;;;;;;6115471;23;20238;-65
2022/10/15 13:46:57;;;;;;;;;;;15.40;99.90;;;;;;6115366;23;19925;-65
2022/10/15 13:49:22;;;;;;;;;;;15.40;99.90;;;;;;6115133;23;19931;-65
2022/10/15 13:51:49;;;;;;;;;;;15.40;99.90;;;;;;6115413;23;19933;-66
2022/10/15 13:54:34;;;;;;;;;;;15.30;99.90;;;;;;6115493;23;19956;-64
2022/10/15 13:57:00;;;;;;;;;;;15.30;99.90;;;;;;6115652;23;19967;-64
2022/10/15 13:59:28;;;;;;;;;;;15.30;99.90;;;;;;6115330;23;19925;-64
2022/10/15 14:01:59;;;;;;;;;;;15.30;99.90;;;;;;6115745;23;19931;-63
2022/10/15 14:04:26;;;;;;;;;;;15.30;99.90;;;;;;6113662;23;19925;-66
2022/10/15 14:07:00;;;;;;;;;;;15.30;99.90;;;;;;6113985;23;19948;-66
2022/10/15 14:09:29;;;;;;;;;;;15.20;99.90;;;;;;6115297;23;19952;-64
2022/10/15 14:11:55;;;;;;;;;;;15.20;99.90;;;;;;6115163;23;19925;-69
2022/10/15 14:14:29;;;;;;;;;;;15.20;99.90;;;;;;6113586;23;20332;-71
2022/10/15 14:16:56;;;;;;;;;;;15.20;99.90;;;;;;6114967;23;19932;-64
2022/10/15 14:19:28;;;;;;;;;;;15.20;99.90;;;;;;6114660;23;19925;-68
2022/10/15 14:21:55;;;;;;;;;;;15.20;99.90;;;;;;6113971;23;19925;-64
2022/10/15 14:24:20;;;;;;;;;;;15.20;99.90;;;;;;6115489;23;19925;-63